Time;durP1;ratioP1;P1;durP2;ratioP2;P2;SDS_P1;SDS_P2;PMS_P1;PMS_P2;Temp;Humidity;BMP_temperature;BMP_pressure;BME280_temperature;BME280_humidity;BME280_pressure;Samples;Min_cycle;Max_cycle;Signal;HPM_P1;HPM_P2
2022/08/28 00:02:55;;;;;;;7.70;3.35;;;;;;;17.75;58.01;101803.53;6210260;23;20025;-95
2022/08/28 00:05:23;;;;;;;9.70;4.00;;;;;;;17.84;58.63;101811.03;6185103;23;20349;-94
2022/08/28 00:07:49;;;;;;;11.00;3.45;;;;;;;17.89;58.24;101815.28;6184248;23;20032;-94
2022/08/28 00:10:18;;;;;;;8.38;3.70;;;;;;;17.82;58.46;101804.06;6184373;23;20004;-95
2022/08/28 00:12:45;;;;;;;9.38;3.70;;;;;;;17.79;58.49;101806.91;6159120;23;20119;-96
2022/08/28 00:15:15;;;;;;;7.47;3.45;;;;;;;17.89;58.46;101812.59;6179685;23;20008;-95
2022/08/28 00:17:41;;;;;;;7.00;3.90;;;;;;;17.88;58.91;101810.88;6154979;23;20023;-96
2022/08/28 00:20:09;;;;;;;8.75;3.28;;;;;;;17.80;58.96;101809.47;6153843;23;20037;-95
2022/08/28 00:22:37;;;;;;;10.00;4.07;;;;;;;17.80;58.90;101811.28;6155984;23;20008;-94
2022/08/28 00:25:04;;;;;;;10.90;3.72;;;;;;;17.77;59.08;101815.00;6129960;23;20039;-95
2022/08/28 00:30:13;;;;;;;9.85;4.00;;;;;;;17.71;58.56;101801.06;6182466;23;20087;-96
2022/08/28 00:58:33;;;;;;;12.38;4.07;;;;;;;17.33;59.27;101802.19;6247744;23;20016;-96
2022/08/28 01:00:59;;;;;;;10.50;4.20;;;;;;;17.14;60.39;101795.22;6196918;23;20137;-95
2022/08/28 01:03:25;;;;;;;12.35;4.03;;;;;;;17.05;59.78;101791.22;6224261;23;20023;-95
2022/08/28 01:05:51;;;;;;;9.45;4.22;;;;;;;17.05;60.23;101796.56;6221664;23;20023;-96
2022/08/28 01:08:17;;;;;;;10.70;4.00;;;;;;;16.99;60.49;101794.22;6229167;23;20064;-95
2022/08/28 01:10:48;;;;;;;9.57;4.30;;;;;;;17.06;60.50;101807.16;6231166;23;20012;-95
2022/08/28 01:13:19;;;;;;;8.40;4.47;;;;;;;17.11;59.97;101822.09;6230984;23;20042;-96
2022/08/28 01:15:49;;;;;;;8.75;3.83;;;;;;;17.01;60.53;101803.00;6220116;23;20004;-96
2022/08/28 01:18:16;;;;;;;12.05;4.20;;;;;;;17.01;59.92;101801.19;6203125;23;20039;-96
2022/08/28 01:21:00;;;;;;;12.07;4.13;;;;;;;17.18;59.83;101832.41;6200988;23;20004;-96
2022/08/28 01:23:47;;;;;;;9.68;4.60;;;;;;;17.25;59.77;101832.91;6206126;23;20014;-95
2022/08/28 01:26:18;;;;;;;8.70;4.13;;;;;;;16.89;60.37;101800.97;6209981;23;20015;-95
2022/08/28 01:28:59;;;;;;;10.35;4.15;;;;;;;16.87;61.08;101800.19;6211544;23;20087;-95
2022/08/28 01:31:43;;;;;;;11.02;3.92;;;;;;;16.92;60.29;101824.84;6163602;23;20079;-95
2022/08/28 06:39:21;;;;;;;10.80;4.50;;;;;;;15.85;67.00;101937.56;6192311;23;20021;-94
2022/08/28 06:51:06;;;;;;;8.63;3.90;;;;;;;16.23;65.69;101946.53;6200386;23;20039;-93
2022/08/28 06:53:34;;;;;;;11.23;3.97;;;;;;;16.44;66.14;101957.13;6179074;23;20032;-94
2022/08/28 07:54:08;;;;;;;6.28;2.33;;;;;;;20.57;54.27;101975.38;6159148;22;20025;-92
2022/08/28 07:56:45;;;;;;;12.00;2.38;;;;;;;20.83;52.23;101972.81;6116241;23;20030;-93
2022/08/28 07:59:23;;;;;;;5.72;2.30;;;;;;;21.21;50.61;101982.84;6079523;23;20021;-94
2022/08/28 08:02:09;;;;;;;7.35;1.83;;;;;;;21.59;49.89;101978.47;6103012;23;20014;-94
2022/08/28 08:04:34;;;;;;;6.65;2.00;;;;;;;22.07;47.53;102004.78;6094077;23;20013;-94
2022/08/28 08:07:01;;;;;;;5.78;1.60;;;;;;;22.36;47.37;102000.91;6065001;23;20049;-93
2022/08/28 08:09:26;;;;;;;6.22;1.90;;;;;;;22.70;46.49;102011.09;6088978;23;20018;-94
2022/08/28 08:11:52;;;;;;;7.03;1.92;;;;;;;22.98;44.46;102007.28;6092653;23;20371;-91
2022/08/28 08:14:18;;;;;;;7.65;2.05;;;;;;;23.41;43.78;102021.13;6090906;23;20010;-96
2022/08/28 08:16:46;;;;;;;3.42;1.48;;;;;;;23.77;43.47;102019.31;6065015;23;20093;-93
2022/08/28 08:19:13;;;;;;;9.35;1.88;;;;;;;24.05;42.40;102008.06;6062468;23;20018;-91
2022/08/28 08:21:43;;;;;;;7.80;2.00;;;;;;;24.21;40.88;102017.69;6089471;23;20012;-93
2022/08/28 08:24:09;;;;;;;4.40;1.77;;;;;;;24.50;40.34;102021.66;6088428;23;20006;-93
2022/08/28 08:26:35;;;;;;;4.20;1.60;;;;;;;24.80;40.23;102018.28;6064002;23;20747;-93
2022/08/28 08:29:00;;;;;;;10.45;1.85;;;;;;;25.06;39.21;102023.41;6088150;23;20010;-95
2022/08/28 08:31:31;;;;;;;5.40;1.70;;;;;;;25.01;39.11;102028.34;6087957;23;20057;-94
2022/08/28 08:34:00;;;;;;;5.63;1.73;;;;;;;25.07;37.88;102025.13;6089609;23;20017;-95
2022/08/28 08:36:26;;;;;;;8.98;2.17;;;;;;;24.68;38.83;102024.72;6063950;23;20065;-95
2022/08/28 08:38:54;;;;;;;4.72;1.83;;;;;;;24.57;38.94;102033.69;6089407;23;20059;-93
2022/08/28 08:41:32;;;;;;;5.10;1.92;;;;;;;25.13;37.66;102021.94;6148456;23;20072;-94
2022/08/28 08:44:16;;;;;;;4.35;1.85;;;;;;;25.22;37.82;102031.16;6153564;23;20429;-95
2022/08/28 08:46:52;;;;;;;4.72;1.60;;;;;;;25.67;37.52;102013.72;6153528;23;20001;-92
2022/08/28 08:49:20;;;;;;;5.28;1.70;;;;;;;26.37;36.99;102033.00;6179977;23;20449;-90
2022/08/28 08:51:53;;;;;;;5.80;1.80;;;;;;;26.83;36.55;102020.78;6152842;23;20120;-92
2022/08/28 08:54:19;;;;;;;3.22;1.52;;;;;;;27.29;35.59;102013.91;6180161;23;20045;-93
2022/08/28 08:56:46;;;;;;;5.70;1.90;;;;;;;27.75;35.56;102020.50;6179661;23;20286;-94
2022/08/28 08:59:16;;;;;;;10.38;2.15;;;;;;;28.34;33.77;102008.44;6181009;23;20028;-92
2022/08/28 09:02:05;;;;;;;5.38;1.50;;;;;;;28.65;34.27;102011.78;6153858;23;20109;-92
2022/08/28 09:04:40;;;;;;;8.60;2.15;;;;;;;29.18;33.00;102017.31;6180900;23;20024;-91
2022/08/28 09:07:14;;;;;;;3.85;1.77;;;;;;;29.21;32.69;102025.19;6155814;23;20009;-93
2022/08/28 09:09:44;;;;;;;3.78;1.60;;;;;;;29.21;32.38;102019.75;6155546;23;20005;-94
2022/08/28 09:12:17;;;;;;;4.90;1.52;;;;;;;28.70;32.78;102025.78;6180531;23;20181;-92
2022/08/28 09:14:52;;;;;;;4.55;1.42;;;;;;;28.51;32.72;102012.28;6154951;23;20036;-92
2022/08/28 09:17:22;;;;;;;5.45;1.80;;;;;;;27.94;32.35;102018.59;6155207;23;20012;-95
2022/08/28 09:19:48;;;;;;;3.90;1.58;;;;;;;28.16;33.88;102022.81;6154539;23;20004;-93
2022/08/28 09:22:13;;;;;;;5.13;1.58;;;;;;;28.02;32.78;102022.44;6154268;23;20016;-95
2022/08/28 09:24:40;;;;;;;5.75;1.70;;;;;;;28.01;32.98;102026.16;6182826;23;20005;-94
2022/08/28 09:27:26;;;;;;;3.67;1.30;;;;;;;28.67;34.03;102023.34;6153573;23;20004;-93
2022/08/28 09:30:01;;;;;;;4.47;1.55;;;;;;;29.51;32.06;102016.78;6153023;23;20005;-91
2022/08/28 09:32:40;;;;;;;6.80;1.52;;;;;;;30.09;30.78;102021.69;6151855;23;20472;-90
2022/08/28 09:35:12;;;;;;;5.93;1.50;;;;;;;30.38;29.67;102015.91;6179213;23;20001;-92
2022/08/28 09:37:38;;;;;;;8.05;2.13;;;;;;;31.06;30.32;102020.44;6153609;23;20005;-92
2022/08/28 09:40:19;;;;;;;14.30;2.50;;;;;;;31.81;29.29;102017.66;6181699;23;20412;-93
2022/08/28 09:45:54;;;;;;;6.47;1.63;;;;;;;29.65;28.75;102018.97;6181564;23;20020;-93
2022/08/28 09:48:35;;;;;;;3.63;1.35;;;;;;;28.80;31.32;102018.41;6162796;23;20004;-96
2022/08/28 09:51:27;;;;;;;4.35;1.73;;;;;;;28.58;30.86;102016.09;6184420;23;20029;-92
2022/08/28 09:53:53;;;;;;;5.68;1.75;;;;;;;29.18;31.20;102011.88;6152637;23;20001;-96
2022/08/28 09:56:33;;;;;;;5.35;1.70;;;;;;;28.87;31.42;102018.69;6172590;23;20085;-93
2022/08/28 09:59:10;;;;;;;4.68;1.30;;;;;;;28.12;31.60;102013.25;6198421;23;20043;-94
2022/08/28 10:01:47;;;;;;;4.28;1.45;;;;;;;28.09;31.52;102023.56;6178378;23;20044;-94
2022/08/28 10:04:35;;;;;;;4.80;1.55;;;;;;;28.32;31.35;102022.19;6178387;23;20439;-92
2022/08/28 10:10:07;;;;;;;3.63;1.40;;;;;;;27.57;33.67;102013.03;6161399;23;20022;-95
2022/08/28 10:13:00;;;;;;;4.80;1.58;;;;;;;28.27;33.54;102026.38;6199147;23;20024;-94
2022/08/28 10:18:14;;;;;;;3.90;1.58;;;;;;;29.97;27.87;102023.81;6196462;23;20024;-94
2022/08/28 10:21:20;;;;;;;4.45;1.65;;;;;;;30.60;29.35;102022.69;6187639;23;20001;-92
2022/08/28 10:24:35;;;;;;;6.65;1.50;;;;;;;30.63;29.43;101990.44;6164113;23;20497;-92
2022/08/28 10:27:16;;;;;;;5.57;1.45;;;;;;;30.05;30.10;101993.88;6165525;23;20072;-94
2022/08/28 10:29:58;;;;;;;7.97;1.45;;;;;;;29.74;30.14;101991.63;6191329;23;20455;-95
2022/08/28 10:38:07;;;;;;;2.80;1.45;;;;;;;29.12;30.99;102004.34;6240039;22;20039;-95
2022/08/28 10:40:48;;;;;;;6.32;1.67;;;;;;;29.15;31.85;102008.63;6215598;23;20016;-95
2022/08/28 10:43:20;;;;;;;2.90;1.38;;;;;;;28.69;30.77;101994.13;6218869;23;20028;-94
2022/08/28 10:45:50;;;;;;;4.22;1.58;;;;;;;28.22;31.06;102007.78;6221285;23;20004;-93
2022/08/28 10:48:48;;;;;;;5.55;1.50;;;;;;;27.66;32.40;102014.03;6214608;23;20004;-95
2022/08/28 10:51:44;;;;;;;5.30;1.60;;;;;;;28.46;31.69;102010.88;6178950;23;20016;-94
2022/08/28 10:54:26;;;;;;;5.55;1.30;;;;;;;29.27;30.51;102021.00;6214837;23;20058;-94
2022/08/28 10:57:06;;;;;;;4.22;1.35;;;;;;;29.55;29.85;102002.72;6215738;23;20016;-94
2022/08/28 10:59:33;;;;;;;3.15;1.40;;;;;;;29.59;27.66;102019.63;6211305;23;20039;-92
2022/08/28 11:02:00;;;;;;;4.40;1.80;;;;;;;29.88;28.22;102025.63;6239588;23;20000;-94
2022/08/28 11:04:27;;;;;;;7.30;1.73;;;;;;;29.98;26.58;102011.88;6211790;23;20004;-94
2022/08/28 11:07:02;;;;;;;3.42;1.50;;;;;;;30.41;27.68;102002.81;6210923;23;20069;-95
2022/08/28 11:09:37;;;;;;;4.85;1.30;;;;;;;29.86;27.70;101999.56;6212139;23;20424;-93
2022/08/28 11:12:14;;;;;;;3.45;1.20;;;;;;;29.26;28.59;102023.88;6212114;23;20447;-93
2022/08/28 11:14:41;;;;;;;3.58;1.15;;;;;;;28.90;29.51;102024.66;6212955;23;20011;-94
2022/08/28 11:17:27;;;;;;;4.03;1.23;;;;;;;29.34;30.78;102023.97;6212217;23;20012;-93
2022/08/28 11:20:07;;;;;;;5.03;1.40;;;;;;;30.13;28.95;102026.72;6190829;23;20085;-93
2022/08/28 11:22:38;;;;;;;2.47;1.20;;;;;;;30.53;27.04;102027.91;6213498;23;20008;-94
2022/08/28 11:25:34;;;;;;;4.53;1.95;;;;;;;30.80;27.64;102024.16;6241093;23;20394;-94
2022/08/28 11:28:37;;;;;;;2.88;1.42;;;;;;;30.70;28.17;102017.94;6212159;23;20008;-94
2022/08/28 11:31:03;;;;;;;3.58;1.20;;;;;;;30.65;26.14;102025.78;6210456;23;20057;-94
2022/08/28 11:33:43;;;;;;;1.97;1.20;;;;;;;30.69;26.52;102021.69;6212918;23;20393;-93
2022/08/28 11:36:31;;;;;;;5.68;1.60;;;;;;;30.53;28.10;102024.34;6239528;23;20026;-94
2022/08/28 11:39:12;;;;;;;3.00;1.35;;;;;;;31.10;26.11;102016.34;6238830;23;20111;-95
2022/08/28 11:41:59;;;;;;;2.90;1.20;;;;;;;31.48;25.69;102004.00;6213407;23;20428;-94
2022/08/28 11:44:36;;;;;;;4.82;1.70;;;;;;;31.19;25.24;102016.19;6211937;23;20490;-94
2022/08/28 11:47:34;;;;;;;7.25;1.55;;;;;;;30.73;27.22;102010.31;6238662;23;20087;-94
2022/08/28 11:50:13;;;;;;;3.40;1.48;;;;;;;30.08;27.67;102003.59;6210735;23;20008;-93
2022/08/28 11:52:58;;;;;;;3.28;1.30;;;;;;;29.84;27.86;101998.84;6212041;23;20373;-93
2022/08/28 11:55:44;;;;;;;2.42;1.15;;;;;;;29.63;27.97;102004.66;6211579;23;20008;-94
2022/08/28 11:58:49;;;;;;;5.43;1.35;;;;;;;29.37;28.33;102016.31;6212453;23;20031;-93
2022/08/28 12:01:26;;;;;;;3.65;1.50;;;;;;;29.45;27.64;101993.75;6211394;23;19996;-93
2022/08/28 12:04:02;;;;;;;3.47;1.25;;;;;;;29.28;28.43;101998.19;6212231;23;20089;-93
2022/08/28 12:06:43;;;;;;;3.65;1.20;;;;;;;29.45;27.97;102018.28;6213515;23;20039;-93
2022/08/28 12:09:10;;;;;;;4.30;1.25;;;;;;;28.82;27.21;101991.03;6211292;23;20008;-94
2022/08/28 12:11:38;;;;;;;2.92;1.02;;;;;;;28.56;29.48;102013.53;6210037;23;20022;-92
2022/08/28 12:14:05;;;;;;;3.45;1.40;;;;;;;29.07;27.19;101998.50;6211196;23;20035;-93
2022/08/28 12:17:07;;;;;;;3.95;1.50;;;;;;;29.99;27.23;102017.22;6236161;23;20099;-92
2022/08/28 12:19:39;;;;;;;5.28;1.17;;;;;;;30.53;25.75;101997.91;6236770;23;20409;-93
2022/08/28 12:22:32;;;;;;;;;;;;;;;31.24;26.80;102012.97;6211293;23;20582;-93
2022/08/28 12:25:02;;;;;;;4.50;1.27;;;;;;;31.53;24.10;101989.81;6167528;23;19990;-94
2022/08/28 12:27:29;;;;;;;4.35;1.15;;;;;;;31.47;24.69;102008.56;6211195;23;20004;-93
2022/08/28 12:35:59;;;;;;;3.28;1.42;;;;;;;29.64;28.20;102007.22;6175874;23;20034;-92
2022/08/28 12:38:26;;;;;;;2.92;1.20;;;;;;;30.41;26.93;101997.34;6149779;23;20090;-91
2022/08/28 12:40:52;;;;;;;2.83;1.50;;;;;;;30.73;25.06;101983.00;6147091;23;20009;-92
2022/08/28 12:43:34;;;;;;;2.63;1.27;;;;;;;30.96;25.21;101993.28;6148998;23;20349;-92
2022/08/28 12:46:09;;;;;;;1.75;1.00;;;;;;;30.42;25.71;101990.88;6148468;23;20001;-93
2022/08/28 12:48:59;;;;;;;2.85;1.10;;;;;;;29.80;26.73;101994.72;6149442;23;20005;-93
2022/08/28 12:51:26;;;;;;;4.82;1.25;;;;;;;29.35;27.35;101995.72;6146632;23;20016;-91
2022/08/28 12:54:01;;;;;;;2.03;1.10;;;;;;;29.50;27.87;101994.13;6144685;23;20005;-92
2022/08/28 12:56:32;;;;;;;3.75;1.17;;;;;;;30.24;25.12;101990.09;6147015;23;20031;-92
2022/08/28 12:59:20;;;;;;;3.22;1.35;;;;;;;30.89;25.51;101984.06;6175620;23;20479;-92
2022/08/28 13:01:46;;;;;;;4.00;1.00;;;;;;;30.97;24.29;101984.94;6150491;23;20337;-92
2022/08/28 13:04:58;;;;;;;3.20;1.20;;;;;;;30.73;25.96;101993.94;6176783;23;20009;-93
2022/08/28 13:07:30;;;;;;;4.72;1.20;;;;;;;29.78;26.22;101980.41;6133103;23;20264;-92
2022/08/28 13:09:59;;;;;;;3.65;1.23;;;;;;;29.63;26.50;101980.13;6176916;23;20012;-92
2022/08/28 13:12:39;;;;;;;3.50;1.15;;;;;;;29.30;27.14;101988.00;6150721;23;20032;-92
2022/08/28 13:15:06;;;;;;;4.15;1.00;;;;;;;29.66;25.91;101982.56;6178014;23;20516;-91
2022/08/28 13:17:49;;;;;;;1.85;1.27;;;;;;;30.27;25.67;101981.59;6149392;23;20159;-93
2022/08/28 13:20:28;;;;;;;2.63;1.05;;;;;;;30.12;25.90;101984.03;6150646;23;20080;-92
2022/08/28 13:22:54;;;;;;;3.10;1.23;;;;;;;29.76;26.62;101980.56;6151204;23;20423;-92
2022/08/28 13:25:24;;;;;;;6.85;1.70;;;;;;;29.10;26.74;101965.53;6178432;23;20009;-91
2022/08/28 13:27:58;;;;;;;6.28;1.15;;;;;;;28.66;26.79;101978.97;6150108;23;20001;-92
2022/08/28 13:30:33;;;;;;;1.85;1.20;;;;;;;28.46;27.89;101982.81;6151037;23;20021;-92
2022/08/28 13:33:01;;;;;;;3.03;1.30;;;;;;;28.94;26.86;101990.66;6177028;23;20009;-92
2022/08/28 13:35:34;;;;;;;4.88;1.13;;;;;;;29.43;27.11;101963.09;6177167;23;20413;-92
2022/08/28 13:38:02;;;;;;;1.50;1.10;;;;;;;29.53;26.28;101966.56;6150154;23;20040;-92
2022/08/28 13:40:31;;;;;;;3.70;1.30;;;;;;;29.34;26.76;101964.88;6152189;23;20019;-92
2022/08/28 13:43:02;;;;;;;1.80;1.02;;;;;;;28.93;26.55;101971.78;6152438;23;20015;-92
2022/08/28 13:45:28;;;;;;;3.63;1.05;;;;;;;28.61;27.17;101966.81;6152147;23;20043;-92
2022/08/28 13:47:56;;;;;;;2.67;1.40;;;;;;;28.35;27.80;101962.09;6178850;23;20008;-93
2022/08/28 13:50:22;;;;;;;2.35;1.10;;;;;;;28.25;28.55;101960.38;6152221;23;20013;-93
2022/08/28 13:52:48;;;;;;;2.03;1.20;;;;;;;28.12;28.59;101966.16;6151472;23;20012;-92
2022/08/28 13:55:13;;;;;;;3.50;1.60;;;;;;;28.32;28.74;101954.19;6179017;23;20008;-92
2022/08/28 13:57:38;;;;;;;1.80;1.20;;;;;;;28.60;28.94;101968.69;6151359;23;20001;-92
2022/08/28 14:00:04;;;;;;;3.15;1.40;;;;;;;29.21;27.49;101953.53;6152205;23;20008;-93
2022/08/28 14:05:14;;;;;;;4.13;1.30;;;;;;;29.82;26.30;101955.38;6179189;23;20020;-91
2022/08/28 14:07:39;;;;;;;2.70;1.08;;;;;;;30.14;24.64;101953.91;6178073;23;20369;-92
2022/08/28 14:10:05;;;;;;;3.08;1.33;;;;;;;29.61;24.48;101946.72;6178412;23;20416;-92
2022/08/28 14:12:30;;;;;;;3.00;1.20;;;;;;;28.90;25.90;101951.16;6178799;23;20012;-93
2022/08/28 14:14:56;;;;;;;2.78;1.27;;;;;;;28.28;26.57;101957.38;6151615;23;20425;-92
2022/08/28 14:17:21;;;;;;;3.00;0.95;;;;;;;28.46;27.09;101950.16;6152016;23;20017;-92
2022/08/28 14:19:48;;;;;;;2.88;1.05;;;;;;;29.50;26.16;101953.25;6151372;23;20016;-92
2022/08/28 14:22:14;;;;;;;4.32;1.27;;;;;;;30.27;24.09;101945.28;6178811;23;20005;-92
2022/08/28 14:24:40;;;;;;;3.00;1.48;;;;;;;30.93;23.37;101945.31;6152428;23;20013;-92
2022/08/28 14:27:05;;;;;;;2.40;1.13;;;;;;;31.10;22.98;101948.91;6178573;23;20064;-92
2022/08/28 14:29:30;;;;;;;4.32;1.70;;;;;;;31.39;22.44;101937.53;6151133;23;20403;-92
2022/08/28 14:31:58;;;;;;;2.92;1.20;;;;;;;31.78;23.17;101941.41;6176576;23;20005;-92
2022/08/28 14:34:24;;;;;;;3.25;1.00;;;;;;;32.06;22.94;101931.78;6151043;23;20507;-92
2022/08/28 14:36:53;;;;;;;1.98;1.17;;;;;;;31.98;22.44;101940.00;6176862;23;20017;-93
2022/08/28 14:39:20;;;;;;;2.17;1.33;;;;;;;32.52;22.00;101936.56;6150640;23;20349;-92
2022/08/28 14:41:48;;;;;;;3.92;1.27;;;;;;;31.79;22.38;101946.69;6178590;23;20013;-92
2022/08/28 14:44:13;;;;;;;3.80;1.30;;;;;;;30.49;24.71;101936.47;6151414;23;20437;-92
2022/08/28 14:46:42;;;;;;;2.03;1.20;;;;;;;29.54;25.84;101932.84;6179169;23;20001;-92
2022/08/28 14:49:09;;;;;;;2.97;1.20;;;;;;;28.88;26.49;101950.47;6153017;23;20036;-91
2022/08/28 14:51:38;;;;;;;3.28;1.30;;;;;;;28.38;27.19;101950.91;6178077;23;20005;-92
2022/08/28 14:54:04;;;;;;;2.15;1.00;;;;;;;28.09;28.09;101937.41;6150990;23;20004;-92
2022/08/28 14:56:30;;;;;;;5.13;1.60;;;;;;;28.03;27.87;101945.31;6176847;23;20013;-91
2022/08/28 14:58:57;;;;;;;3.47;1.17;;;;;;;28.87;27.18;101950.63;6176202;23;20063;-92
2022/08/28 15:01:35;;;;;;;2.47;1.00;;;;;;;28.41;27.35;101942.44;6177634;23;20008;-93
2022/08/28 15:04:01;;;;;;;3.95;1.27;;;;;;;29.92;25.49;101937.03;6152067;23;20005;-94
2022/08/28 15:06:27;;;;;;;4.05;1.15;;;;;;;31.30;23.98;101929.50;6156474;23;20012;-94
2022/08/28 15:08:53;;;;;;;2.42;1.20;;;;;;;31.40;23.50;101925.56;6156127;23;20015;-94
2022/08/28 15:11:20;;;;;;;2.05;0.90;;;;;;;31.52;22.36;101933.41;6154943;23;20076;-94
2022/08/28 15:13:48;;;;;;;2.80;1.10;;;;;;;31.23;23.52;101926.56;6157562;23;20005;-95
2022/08/28 15:16:17;;;;;;;2.47;1.20;;;;;;;30.44;23.67;101922.47;6157096;23;20031;-95
2022/08/28 15:18:43;;;;;;;3.33;1.23;;;;;;;30.77;24.13;101926.16;6157491;23;20016;-94
2022/08/28 15:21:17;;;;;;;2.20;0.95;;;;;;;31.07;24.05;101910.19;6181336;23;20009;-93
2022/08/28 15:23:43;;;;;;;2.45;1.30;;;;;;;31.13;23.13;101924.00;6133481;23;20569;-93
2022/08/28 15:26:09;;;;;;;6.55;1.23;;;;;;;31.15;22.54;101932.00;6183857;23;20220;-93
2022/08/28 15:28:35;;;;;;;3.95;1.02;;;;;;;31.00;22.42;101919.03;6158713;23;20005;-94
2022/08/28 15:31:00;;;;;;;1.35;0.90;;;;;;;30.71;23.44;101914.03;6131545;23;20013;-93
2022/08/28 15:33:26;;;;;;;7.40;1.20;;;;;;;30.69;23.66;101913.34;6181712;23;20009;-93
2022/08/28 15:35:55;;;;;;;2.97;1.53;;;;;;;30.47;23.82;101906.63;6181523;23;20696;-92
2022/08/28 15:38:21;;;;;;;2.10;1.20;;;;;;;30.49;23.63;101915.47;6182472;23;20572;-92
2022/08/28 15:43:31;;;;;;;2.20;1.05;;;;;;;30.14;25.01;101913.00;6183383;23;20024;-92
2022/08/28 15:45:56;;;;;;;3.03;1.43;;;;;;;30.09;24.64;101907.13;6183717;23;20005;-92
2022/08/28 15:48:22;;;;;;;2.45;1.02;;;;;;;29.89;24.32;101912.84;6183299;23;20685;-92
2022/08/28 15:50:47;;;;;;;4.43;1.40;;;;;;;29.76;25.02;101906.13;6157539;23;20437;-92
2022/08/28 15:53:12;;;;;;;3.22;1.13;;;;;;;29.91;25.76;101918.97;6156808;23;20436;-93
2022/08/28 15:55:38;;;;;;;4.95;1.27;;;;;;;29.89;24.89;101910.13;6157492;23;20012;-92
2022/08/28 15:58:04;;;;;;;1.95;1.30;;;;;;;29.93;24.58;101913.34;6157032;23;20024;-92
2022/08/28 16:00:30;;;;;;;2.65;1.45;;;;;;;29.64;25.19;101908.25;6157315;23;20609;-92
2022/08/28 16:02:58;;;;;;;2.63;1.20;;;;;;;29.55;25.47;101912.78;6157050;23;20004;-92
2022/08/28 16:05:25;;;;;;;3.03;1.10;;;;;;;29.68;25.17;101909.63;6183281;23;20001;-92
2022/08/28 16:07:50;;;;;;;3.45;1.35;;;;;;;29.70;25.15;101910.31;6156237;23;20595;-93
2022/08/28 16:10:17;;;;;;;3.28;1.40;;;;;;;29.39;24.86;101910.78;6182981;23;20005;-92
2022/08/28 16:12:42;;;;;;;3.58;1.38;;;;;;;29.10;24.92;101904.72;6156343;23;20005;-92
2022/08/28 16:15:08;;;;;;;3.55;1.30;;;;;;;29.08;25.75;101896.72;6156650;23;20024;-92
2022/08/28 16:17:35;;;;;;;3.75;1.30;;;;;;;29.02;25.66;101912.84;6156001;23;20056;-93
2022/08/28 16:20:00;;;;;;;2.75;1.23;;;;;;;28.75;26.85;101900.13;6156570;23;20013;-93
2022/08/28 16:22:26;;;;;;;4.07;1.30;;;;;;;28.39;27.44;101913.66;6156221;23;20039;-93
2022/08/28 16:24:51;;;;;;;4.43;1.45;;;;;;;28.23;27.95;101917.03;6155732;23;20005;-93
2022/08/28 16:27:16;;;;;;;4.77;1.50;;;;;;;28.20;28.18;101920.03;6157022;23;20087;-93
2022/08/28 16:29:45;;;;;;;4.30;1.52;;;;;;;28.07;28.49;101916.81;6156858;23;20581;-93
2022/08/28 16:32:11;;;;;;;3.38;1.35;;;;;;;27.93;28.63;101909.97;6157590;23;20005;-93
2022/08/28 16:34:36;;;;;;;2.58;1.50;;;;;;;27.77;29.19;101913.34;6182899;23;20432;-92
2022/08/28 16:37:02;;;;;;;3.10;1.55;;;;;;;27.61;29.71;101913.94;6153133;23;20013;-93
2022/08/28 16:39:27;;;;;;;2.67;1.50;;;;;;;27.38;29.49;101920.72;6153014;23;20342;-94
2022/08/28 16:41:56;;;;;;;2.40;1.40;;;;;;;27.23;29.78;101922.13;6152159;23;20010;-94
2022/08/28 16:44:26;;;;;;;5.32;1.63;;;;;;;27.45;29.76;101924.53;6160548;23;20008;-95
2022/08/28 16:46:54;;;;;;;3.20;1.40;;;;;;;27.61;29.98;101921.25;6159859;23;20001;-95
2022/08/28 16:49:19;;;;;;;3.33;1.20;;;;;;;27.70;30.30;101920.34;6135679;23;20012;-94
2022/08/28 16:51:45;;;;;;;4.60;1.63;;;;;;;27.66;29.20;101918.94;6158043;23;20342;-96
2022/08/28 16:54:11;;;;;;;1.88;1.17;;;;;;;27.33;29.97;101920.28;6157099;23;20012;-94
2022/08/28 16:56:38;;;;;;;5.63;1.55;;;;;;;27.07;30.36;101903.69;6158792;23;20005;-94
2022/08/28 16:59:05;;;;;;;2.97;1.13;;;;;;;27.32;30.67;101924.84;6184590;23;20005;-93
2022/08/28 17:01:31;;;;;;;4.05;1.58;;;;;;;27.31;30.15;101905.97;6157619;23;20037;-95
2022/08/28 17:03:56;;;;;;;4.72;1.55;;;;;;;27.34;29.57;101914.69;6159554;23;20005;-92
2022/08/28 17:06:28;;;;;;;3.40;1.38;;;;;;;27.24;29.97;101902.16;6158103;23;20005;-94
2022/08/28 17:08:54;;;;;;;2.50;1.38;;;;;;;27.10;29.54;101919.72;6183447;23;20012;-94
2022/08/28 17:11:20;;;;;;;4.45;1.20;;;;;;;26.92;29.53;101911.41;6156444;23;20103;-93
2022/08/28 17:13:47;;;;;;;6.70;2.45;;;;;;;26.82;30.32;101908.69;6158405;23;20032;-93
2022/08/28 17:16:13;;;;;;;7.18;1.70;;;;;;;26.68;30.22;101917.22;6159424;23;20051;-94
2022/08/28 17:18:40;;;;;;;2.72;1.50;;;;;;;26.43;31.06;101914.00;6159585;23;20008;-94
2022/08/28 17:23:56;;;;;;;4.68;1.75;;;;;;;26.13;31.89;101917.63;6187924;23;20071;-93
2022/08/28 17:26:23;;;;;;;2.92;1.60;;;;;;;26.17;30.93;101923.63;6187842;23;20008;-94
2022/08/28 17:28:50;;;;;;;3.35;1.42;;;;;;;25.91;31.24;101912.38;6160276;23;20009;-94
2022/08/28 17:31:16;;;;;;;2.97;1.50;;;;;;;25.90;31.11;101919.66;6158719;23;20433;-94
2022/08/28 17:33:43;;;;;;;2.08;1.23;;;;;;;25.63;31.33;101889.53;6161939;23;20254;-94
2022/08/28 17:36:12;;;;;;;4.72;1.40;;;;;;;25.62;31.92;101907.63;6186279;23;20084;-92
2022/08/28 17:38:38;;;;;;;3.20;1.20;;;;;;;25.59;32.58;101907.03;6161529;23;20392;-95
2022/08/28 17:41:05;;;;;;;6.63;1.25;;;;;;;25.35;32.54;101907.31;6159786;23;20009;-94
2022/08/28 17:43:31;;;;;;;3.67;1.65;;;;;;;25.23;32.95;101928.19;6185266;23;20055;-93
2022/08/28 17:45:57;;;;;;;3.08;1.48;;;;;;;25.07;33.07;101920.47;6158881;23;20009;-93
2022/08/28 17:48:23;;;;;;;5.95;2.13;;;;;;;24.99;33.04;101911.25;6159442;23;20449;-93
2022/08/28 17:50:50;;;;;;;3.63;1.50;;;;;;;24.78;33.70;101914.78;6159783;23;20001;-94
2022/08/28 17:53:17;;;;;;;3.45;1.52;;;;;;;24.87;34.21;101924.84;6158293;23;20369;-93
2022/08/28 17:55:43;;;;;;;6.45;1.67;;;;;;;24.62;33.80;101927.84;6157200;23;20009;-93
2022/08/28 17:58:09;;;;;;;6.88;1.73;;;;;;;24.38;34.75;101920.75;6155235;23;20116;-92
2022/08/28 18:00:35;;;;;;;2.42;1.60;;;;;;;24.36;34.85;101928.16;6155594;23;20015;-94
2022/08/28 18:03:01;;;;;;;6.45;1.80;;;;;;;24.28;35.10;101932.41;6155609;23;20016;-93
2022/08/28 18:05:28;;;;;;;2.28;1.50;;;;;;;24.01;35.12;101900.38;6184953;23;20008;-94
2022/08/28 18:07:54;;;;;;;1.92;1.33;;;;;;;24.26;35.43;101921.75;6157120;23;20012;-93
2022/08/28 18:10:20;;;;;;;4.05;1.45;;;;;;;23.90;34.93;101893.97;6156784;23;20005;-93
2022/08/28 18:12:46;;;;;;;3.72;1.70;;;;;;;23.79;36.16;101906.63;6182397;23;20001;-93
2022/08/28 18:15:14;;;;;;;3.42;1.40;;;;;;;23.76;35.38;101917.66;6157038;23;20063;-93
2022/08/28 18:17:41;;;;;;;3.92;1.50;;;;;;;23.74;35.49;101935.84;6157945;23;19997;-93
2022/08/28 18:20:09;;;;;;;3.63;1.40;;;;;;;23.65;36.23;101937.44;6158371;23;20349;-93
2022/08/28 18:22:35;;;;;;;6.47;1.90;;;;;;;23.42;35.60;101937.34;6157992;23;20007;-93
2022/08/28 18:25:03;;;;;;;4.25;1.90;;;;;;;23.20;35.68;101942.66;6157084;23;20011;-93
2022/08/28 18:27:30;;;;;;;2.03;1.58;;;;;;;23.13;36.29;101938.72;6186041;23;20075;-94
2022/08/28 18:29:56;;;;;;;2.78;1.30;;;;;;;23.05;35.65;101936.59;6134590;23;20341;-93
2022/08/28 18:32:22;;;;;;;7.15;1.80;;;;;;;22.90;35.85;101933.19;6185248;23;20425;-94
2022/08/28 18:34:47;;;;;;;4.47;1.92;;;;;;;22.96;35.96;101929.19;6185228;23;20063;-93
2022/08/28 18:37:13;;;;;;;3.72;1.60;;;;;;;22.98;36.12;101932.59;6185736;23;20013;-94
2022/08/28 18:39:39;;;;;;;4.78;1.73;;;;;;;23.25;35.75;101950.38;6159890;23;20005;-93
2022/08/28 18:42:05;;;;;;;3.97;1.60;;;;;;;23.33;36.03;101950.69;6159368;23;20004;-94
2022/08/28 18:44:31;;;;;;;4.90;1.65;;;;;;;23.31;35.73;101945.38;6159095;23;20015;-94
2022/08/28 18:46:57;;;;;;;4.07;1.45;;;;;;;23.24;35.99;101932.50;6159973;23;20000;-94
2022/08/28 18:49:25;;;;;;;3.50;1.50;;;;;;;23.17;36.50;101940.16;6159821;23;20005;-94
2022/08/28 18:51:52;;;;;;;4.75;1.63;;;;;;;22.96;36.48;101949.91;6160453;23;20001;-93
2022/08/28 18:54:19;;;;;;;2.65;1.45;;;;;;;22.70;37.30;101963.44;6187033;23;20018;-94